Time;durP1;ratioP1;P1;durP2;ratioP2;P2;SDS_P1;SDS_P2;PMS_P1;PMS_P2;Temp;Humidity;BMP_temperature;BMP_pressure;BME280_temperature;BME280_humidity;BME280_pressure;Samples;Min_cycle;Max_cycle;Signal;HPM_P1;HPM_P2
2020/12/24 00:01:58;;;;;;;9.73;2.33;;;6.00;94.50;;;;;;4994703;28;20038;-64
2020/12/24 00:04:23;;;;;;;12.13;2.50;;;6.00;94.60;;;;;;5012571;28;20038;-64
2020/12/24 00:06:49;;;;;;;10.57;2.30;;;5.90;94.50;;;;;;5012965;28;20490;-64
2020/12/24 00:09:15;;;;;;;9.90;2.60;;;5.90;94.50;;;;;;5011216;28;20045;-64
2020/12/24 00:11:40;;;;;;;9.93;2.30;;;5.90;94.50;;;;;;5012675;28;20507;-64
2020/12/24 00:14:06;;;;;;;9.23;2.30;;;5.90;94.50;;;;;;5010832;28;20049;-64
2020/12/24 00:16:32;;;;;;;9.60;2.33;;;5.90;94.60;;;;;;5012331;28;20038;-64
2020/12/24 00:18:58;;;;;;;7.50;1.90;;;5.80;94.50;;;;;;5012851;28;20048;-64
2020/12/24 00:21:23;;;;;;;8.17;2.00;;;5.80;94.50;;;;;;5012377;28;20034;-64
2020/12/24 00:23:49;;;;;;;8.77;2.03;;;5.80;94.50;;;;;;5012497;28;20461;-63
2020/12/24 00:26:15;;;;;;;8.13;1.53;;;5.80;94.50;;;;;;5012259;28;20037;-67
2020/12/24 00:28:40;;;;;;;7.33;1.77;;;5.70;94.40;;;;;;5012285;28;20068;-64
2020/12/24 00:31:07;;;;;;;7.37;2.07;;;5.80;94.40;;;;;;5011268;28;20046;-64
2020/12/24 00:33:33;;;;;;;9.80;1.97;;;5.70;94.40;;;;;;5011730;28;20042;-64
2020/12/24 00:36:00;;;;;;;6.87;1.87;;;5.70;94.60;;;;;;5012276;28;20045;-63
2020/12/24 00:38:26;;;;;;;7.30;1.50;;;5.70;94.50;;;;;;5011268;28;20042;-65
2020/12/24 00:40:52;;;;;;;10.87;2.07;;;5.70;94.40;;;;;;5012214;28;20033;-63
2020/12/24 00:43:17;;;;;;;5.07;1.40;;;5.70;94.40;;;;;;5012091;28;20034;-64
2020/12/24 00:45:43;;;;;;;11.03;2.13;;;5.70;94.40;;;;;;5011496;28;20052;-64
2020/12/24 00:48:09;;;;;;;6.97;1.60;;;5.60;94.40;;;;;;5010687;28;20522;-64
2020/12/24 00:50:35;;;;;;;10.87;1.60;;;5.60;94.40;;;;;;5012056;28;20061;-64
2020/12/24 00:53:00;;;;;;;8.13;1.77;;;5.60;94.40;;;;;;4993929;28;20038;-64
2020/12/24 00:55:28;;;;;;;5.57;1.33;;;5.60;94.40;;;;;;5011827;28;20092;-64
2020/12/24 00:57:55;;;;;;;7.93;1.40;;;5.60;94.40;;;;;;5043171;28;20060;-64
2020/12/24 01:00:24;;;;;;;6.43;1.27;;;5.50;94.50;;;;;;5010681;28;20030;-64
2020/12/24 01:02:50;;;;;;;8.57;1.60;;;5.60;94.70;;;;;;5011248;28;20042;-64
2020/12/24 01:05:15;;;;;;;8.03;1.63;;;5.60;94.50;;;;;;5009482;28;20026;-64
2020/12/24 01:07:41;;;;;;;4.20;1.40;;;5.60;94.50;;;;;;5011120;28;20065;-64
2020/12/24 01:10:07;;;;;;;5.47;1.33;;;5.60;94.40;;;;;;5010818;28;20111;-64
2020/12/24 01:12:34;;;;;;;4.97;1.50;;;5.60;94.40;;;;;;5010790;28;20030;-64
2020/12/24 01:15:01;;;;;;;7.57;1.50;;;5.50;94.40;;;;;;5009127;28;20052;-68
2020/12/24 01:17:26;;;;;;;11.63;1.77;;;5.50;94.40;;;;;;5011001;28;20033;-64
2020/12/24 01:19:52;;;;;;;7.73;1.40;;;5.60;94.40;;;;;;5009822;28;20041;-63
2020/12/24 01:22:18;;;;;;;6.67;1.57;;;5.50;94.40;;;;;;5010313;28;20119;-63
2020/12/24 01:24:43;;;;;;;8.60;1.80;;;5.50;94.40;;;;;;5010740;28;20109;-63
2020/12/24 01:27:09;;;;;;;8.93;1.80;;;5.50;94.40;;;;;;5010637;28;20042;-63
2020/12/24 01:29:35;;;;;;;7.83;1.70;;;5.60;94.60;;;;;;5041996;28;20038;-65
2020/12/24 01:32:02;;;;;;;8.20;1.80;;;5.50;94.30;;;;;;5009232;28;20049;-63
2020/12/24 01:34:28;;;;;;;7.23;1.73;;;5.50;94.40;;;;;;5010796;28;20438;-65
2020/12/24 01:36:54;;;;;;;7.63;1.73;;;5.50;94.40;;;;;;5011356;28;20045;-65
2020/12/24 01:39:20;;;;;;;5.80;1.87;;;5.50;94.30;;;;;;5011536;28;20124;-73
2020/12/24 01:41:47;;;;;;;7.57;1.63;;;5.50;94.30;;;;;;5011001;28;20558;-74
2020/12/24 01:44:13;;;;;;;10.13;1.80;;;5.50;94.20;;;;;;5011018;28;20040;-75
2020/12/24 01:46:39;;;;;;;8.97;2.23;;;5.50;94.30;;;;;;5009520;28;20503;-75
2020/12/24 01:49:04;;;;;;;5.23;1.77;;;5.50;94.30;;;;;;5042954;28;20049;-75
2020/12/24 01:51:31;;;;;;;8.90;1.90;;;5.50;94.30;;;;;;5011126;28;20080;-75
2020/12/24 01:53:59;;;;;;;6.20;1.57;;;5.50;94.30;;;;;;5042268;28;20042;-76
2020/12/24 01:56:26;;;;;;;4.57;1.60;;;5.40;94.30;;;;;;5042581;28;20042;-75
2020/12/24 01:58:54;;;;;;;6.90;1.80;;;5.50;94.30;;;;;;5010686;28;20064;-75
2020/12/24 02:01:21;;;;;;;8.70;2.00;;;5.50;94.30;;;;;;5011211;28;20689;-75
2020/12/24 02:03:47;;;;;;;7.00;1.80;;;5.50;94.30;;;;;;5010468;28;20041;-74
2020/12/24 02:06:13;;;;;;;4.27;1.53;;;5.40;94.30;;;;;;5009637;28;20034;-76
2020/12/24 02:08:39;;;;;;;6.07;1.73;;;5.50;94.50;;;;;;5010909;28;20060;-75
2020/12/24 02:11:06;;;;;;;6.03;1.50;;;5.40;94.20;;;;;;4992996;28;20042;-75
2020/12/24 02:13:32;;;;;;;6.73;1.77;;;5.50;94.20;;;;;;5009290;28;20037;-75
2020/12/24 02:15:58;;;;;;;6.33;1.47;;;5.40;94.30;;;;;;5010373;28;20119;-75
2020/12/24 02:18:25;;;;;;;6.40;1.80;;;5.40;94.30;;;;;;5010805;28;20038;-74
2020/12/24 02:20:51;;;;;;;6.20;1.87;;;5.40;94.30;;;;;;5010992;28;20086;-75
2020/12/24 02:23:17;;;;;;;10.13;1.97;;;5.40;94.30;;;;;;5010057;28;20049;-75
2020/12/24 02:25:43;;;;;;;5.90;1.60;;;5.40;94.20;;;;;;5010609;28;20038;-75
2020/12/24 02:28:09;;;;;;;7.27;1.70;;;5.40;94.30;;;;;;5010419;28;20057;-75
2020/12/24 02:30:36;;;;;;;6.23;1.70;;;5.40;94.40;;;;;;5010935;28;20045;-75
2020/12/24 02:33:02;;;;;;;7.70;1.70;;;5.40;94.40;;;;;;5009151;28;20112;-75
2020/12/24 02:35:28;;;;;;;6.13;1.70;;;5.50;94.40;;;;;;5010122;28;20450;-75
2020/12/24 02:37:54;;;;;;;5.10;1.50;;;5.40;94.20;;;;;;5009389;28;20042;-75
2020/12/24 02:40:19;;;;;;;7.83;1.70;;;5.40;94.20;;;;;;5010348;28;20046;-75
2020/12/24 02:42:45;;;;;;;5.10;1.50;;;5.40;94.20;;;;;;5010450;28;20037;-75
2020/12/24 02:45:11;;;;;;;9.70;1.93;;;5.40;94.20;;;;;;5009148;28;20037;-74
2020/12/24 02:47:37;;;;;;;4.10;1.57;;;5.40;94.30;;;;;;5010156;28;20073;-75
2020/12/24 02:50:07;;;;;;;5.33;1.60;;;5.40;94.20;;;;;;5010727;28;20113;-75
2020/12/24 02:52:33;;;;;;;7.60;1.90;;;5.40;94.30;;;;;;5008679;28;20403;-75
2020/12/24 02:55:00;;;;;;;5.87;1.90;;;5.40;94.20;;;;;;5010423;28;20037;-76
2020/12/24 02:57:25;;;;;;;5.47;1.60;;;5.40;94.30;;;;;;5009161;28;20284;-75
2020/12/24 02:59:51;;;;;;;5.67;1.70;;;5.40;94.20;;;;;;5010337;28;20042;-76
2020/12/24 03:02:17;;;;;;;5.13;1.50;;;5.40;94.20;;;;;;5043157;28;20454;-75
2020/12/24 03:04:43;;;;;;;5.87;1.70;;;5.40;94.20;;;;;;5013521;28;20064;-75
2020/12/24 03:07:08;;;;;;;4.87;1.40;;;5.40;94.20;;;;;;5013867;28;20041;-75
2020/12/24 03:09:34;;;;;;;8.23;1.97;;;5.40;94.20;;;;;;4996327;28;20056;-75
2020/12/24 03:12:00;;;;;;;5.10;1.63;;;5.30;94.10;;;;;;5012051;28;24638;-75
2020/12/24 03:14:25;;;;;;;5.77;1.50;;;5.30;94.10;;;;;;5012048;28;20458;-76
2020/12/24 03:16:52;;;;;;;6.17;1.57;;;5.30;94.20;;;;;;5045302;28;20042;-75
2020/12/24 03:19:17;;;;;;;5.23;1.60;;;5.30;94.20;;;;;;5013950;28;20092;-75
2020/12/24 03:21:44;;;;;;;5.40;1.30;;;5.20;94.20;;;;;;5013358;28;20045;-76
2020/12/24 03:24:09;;;;;;;3.27;1.40;;;5.30;94.30;;;;;;5013432;28;20544;-75
2020/12/24 03:26:35;;;;;;;5.20;1.47;;;5.30;94.30;;;;;;5013525;28;20045;-76
2020/12/24 03:29:01;;;;;;;3.80;1.50;;;5.20;94.20;;;;;;5013323;28;20041;-75
2020/12/24 03:31:27;;;;;;;4.07;1.40;;;5.20;94.20;;;;;;5045253;28;20415;-74
2020/12/24 03:33:54;;;;;;;3.07;1.20;;;5.20;94.20;;;;;;5013348;28;20037;-75
2020/12/24 03:36:21;;;;;;;3.27;1.50;;;5.20;94.10;;;;;;5011577;28;20470;-76
2020/12/24 03:38:46;;;;;;;3.27;1.37;;;5.10;94.00;;;;;;5013704;28;20041;-74
2020/12/24 03:41:12;;;;;;;5.33;1.50;;;5.10;94.10;;;;;;5013242;28;20038;-75
2020/12/24 03:43:38;;;;;;;4.77;1.30;;;5.10;94.10;;;;;;5011682;28;20038;-75
2020/12/24 03:46:04;;;;;;;4.87;1.50;;;5.10;94.40;;;;;;5013246;28;20563;-75
2020/12/24 03:48:29;;;;;;;3.90;1.47;;;5.10;94.20;;;;;;5012774;28;20073;-75
2020/12/24 03:50:55;;;;;;;4.53;1.50;;;5.10;94.10;;;;;;5013449;28;20054;-74
2020/12/24 03:53:21;;;;;;;5.37;1.40;;;5.00;94.10;;;;;;5011712;28;20065;-74
2020/12/24 03:55:47;;;;;;;5.47;1.60;;;5.00;94.10;;;;;;5012402;28;20037;-75
2020/12/24 03:58:13;;;;;;;5.30;1.53;;;5.00;94.10;;;;;;5011860;28;20042;-75
2020/12/24 04:00:39;;;;;;;3.83;1.70;;;4.90;94.10;;;;;;5012686;28;20046;-75
2020/12/24 04:03:06;;;;;;;6.27;1.93;;;4.90;94.10;;;;;;5012851;28;20049;-75
2020/12/24 04:05:32;;;;;;;3.73;1.60;;;4.90;94.20;;;;;;5012828;28;20059;-75
2020/12/24 04:07:58;;;;;;;3.57;1.40;;;4.90;94.30;;;;;;5012567;28;20072;-75
2020/12/24 04:10:24;;;;;;;2.70;1.20;;;4.90;94.30;;;;;;5013278;28;20053;-76
2020/12/24 04:12:50;;;;;;;4.00;1.40;;;4.90;94.10;;;;;;4994188;28;20093;-76
2020/12/24 04:15:15;;;;;;;3.17;1.30;;;4.90;94.10;;;;;;5010626;28;20042;-74
2020/12/24 04:17:41;;;;;;;2.43;1.17;;;4.90;94.10;;;;;;5012746;28;20044;-74
2020/12/24 04:20:07;;;;;;;2.27;1.30;;;4.90;94.00;;;;;;5012271;28;20041;-75
2020/12/24 04:22:33;;;;;;;2.33;1.00;;;4.80;94.00;;;;;;5012432;28;20034;-74
2020/12/24 04:24:59;;;;;;;2.37;1.20;;;4.70;93.90;;;;;;5011883;28;20041;-75
2020/12/24 04:27:25;;;;;;;3.40;1.33;;;4.70;94.00;;;;;;5012559;28;20034;-73
2020/12/24 04:29:51;;;;;;;1.60;0.87;;;4.70;94.10;;;;;;5011109;28;20046;-75
2020/12/24 04:32:17;;;;;;;2.10;1.00;;;4.70;94.00;;;;;;5010573;28;20034;-76
2020/12/24 04:34:43;;;;;;;2.73;1.20;;;4.60;93.90;;;;;;5012180;28;20045;-75
2020/12/24 04:37:08;;;;;;;2.03;1.10;;;4.60;94.00;;;;;;5012036;28;20521;-74
2020/12/24 04:39:34;;;;;;;2.00;1.13;;;4.60;94.10;;;;;;5011124;28;20040;-75
2020/12/24 04:42:00;;;;;;;2.03;1.00;;;4.50;94.10;;;;;;5012180;28;20121;-75
2020/12/24 04:44:30;;;;;;;1.20;0.77;;;4.50;94.00;;;;;;5010300;28;20507;-75
2020/12/24 04:46:56;;;;;;;3.20;0.80;;;4.50;93.90;;;;;;5012203;28;20038;-75
2020/12/24 04:49:26;;;;;;;1.97;0.80;;;4.50;93.90;;;;;;5011789;28;20046;-75
2020/12/24 04:51:51;;;;;;;1.37;0.80;;;4.40;93.90;;;;;;5011819;28;20112;-75
2020/12/24 04:54:18;;;;;;;3.10;1.00;;;4.40;94.20;;;;;;5011853;28;20563;-74
2020/12/24 04:56:44;;;;;;;2.60;1.10;;;4.40;93.90;;;;;;5011744;28;20034;-74
2020/12/24 04:59:10;;;;;;;2.20;1.00;;;4.40;94.00;;;;;;5010656;28;20068;-73
2020/12/24 05:01:36;;;;;;;2.13;1.20;;;4.40;94.00;;;;;;5011363;28;20038;-74
2020/12/24 05:04:03;;;;;;;2.43;1.20;;;4.30;93.90;;;;;;5011153;28;20077;-73
2020/12/24 05:06:29;;;;;;;4.93;1.20;;;4.30;93.90;;;;;;5009315;28;20034;-72
2020/12/24 05:08:57;;;;;;;2.63;1.53;;;4.30;94.00;;;;;;5011155;28;20503;-73
2020/12/24 05:11:30;;;;;;;3.93;1.53;;;4.20;94.10;;;;;;5011239;28;20038;-73
2020/12/24 05:14:14;;;;;;;2.43;1.10;;;4.20;94.00;;;;;;5010475;28;20060;-73
2020/12/24 05:16:40;;;;;;;3.97;1.20;;;4.20;94.00;;;;;;5010743;28;20487;-70
2020/12/24 05:19:11;;;;;;;2.23;1.10;;;4.20;93.80;;;;;;5011084;28;20040;-73
2020/12/24 05:21:39;;;;;;;0.97;0.80;;;4.10;93.90;;;;;;5010925;28;20033;-74
2020/12/24 05:24:28;;;;;;;2.37;0.90;;;4.20;93.90;;;;;;5010513;28;20029;-74
2020/12/24 05:27:15;;;;;;;1.10;0.80;;;4.10;93.90;;;;;;5010599;28;20499;-72
2020/12/24 05:29:47;;;;;;;0.87;0.70;;;4.10;93.90;;;;;;5009506;28;20042;-73
2020/12/24 05:32:12;;;;;;;8.23;1.20;;;4.10;93.90;;;;;;5010238;28;20034;-73
2020/12/24 05:34:38;;;;;;;1.03;0.70;;;4.10;93.80;;;;;;5010906;28;20038;-74
2020/12/24 05:37:17;;;;;;;1.50;0.70;;;4.00;93.80;;;;;;5010960;28;20454;-73
2020/12/24 05:39:47;;;;;;;1.50;0.70;;;4.00;93.80;;;;;;5010080;28;20061;-74
2020/12/24 05:42:13;;;;;;;2.33;0.90;;;4.00;93.90;;;;;;5010689;28;20042;-74
2020/12/24 05:44:39;;;;;;;2.47;0.70;;;4.00;93.90;;;;;;5010967;28;20041;-73
2020/12/24 05:47:06;;;;;;;2.23;0.90;;;4.00;93.90;;;;;;5010063;28;20392;-74
2020/12/24 05:49:33;;;;;;;0.90;0.70;;;4.00;93.90;;;;;;5010704;28;20049;-74
2020/12/24 05:52:01;;;;;;;1.60;0.70;;;4.00;93.80;;;;;;5011031;28;20148;-74
2020/12/24 05:54:30;;;;;;;1.87;0.90;;;4.00;93.80;;;;;;5010559;28;20046;-74
2020/12/24 05:56:57;;;;;;;0.70;0.50;;;4.00;93.80;;;;;;5011165;28;20034;-74
2020/12/24 05:59:25;;;;;;;1.13;0.67;;;3.90;93.70;;;;;;5010612;28;20072;-73
2020/12/24 06:02:09;;;;;;;1.33;0.73;;;3.90;93.60;;;;;;5011073;28;20038;-74
2020/12/24 06:04:46;;;;;;;1.00;0.60;;;3.90;93.60;;;;;;5009222;28;20042;-74
2020/12/24 06:07:18;;;;;;;1.27;0.73;;;3.80;93.60;;;;;;5009865;28;20042;-74
2020/12/24 06:09:45;;;;;;;0.97;0.60;;;3.80;93.50;;;;;;5010645;28;20096;-74
2020/12/24 06:12:25;;;;;;;1.57;0.70;;;3.70;93.60;;;;;;5010749;28;20038;-74
2020/12/24 06:14:52;;;;;;;1.53;0.70;;;3.70;93.60;;;;;;5010327;28;20081;-73
2020/12/24 06:17:20;;;;;;;1.53;0.70;;;3.70;93.80;;;;;;5010975;28;20057;-74
2020/12/24 06:19:46;;;;;;;1.00;0.70;;;3.70;93.60;;;;;;5010524;28;20088;-74
2020/12/24 06:22:13;;;;;;;0.70;0.60;;;3.60;93.70;;;;;;5010644;28;20030;-74
2020/12/24 06:24:54;;;;;;;1.00;0.60;;;3.60;93.70;;;;;;5010275;28;20044;-74
2020/12/24 06:27:31;;;;;;;1.17;0.70;;;3.60;93.70;;;;;;5010962;28;20557;-73
2020/12/24 06:30:15;;;;;;;1.27;0.90;;;3.60;93.90;;;;;;5010358;28;20061;-74
2020/12/24 06:32:47;;;;;;;1.00;0.70;;;3.60;93.60;;;;;;5010458;28;20057;-74
2020/12/24 06:35:34;;;;;;;1.10;0.70;;;3.50;93.50;;;;;;5010350;28;20402;-74
2020/12/24 06:38:00;;;;;;;1.40;0.83;;;3.50;93.60;;;;;;5012822;28;20130;-74
2020/12/24 06:40:33;;;;;;;1.40;0.70;;;3.50;93.70;;;;;;5014660;28;20054;-74
2020/12/24 06:43:00;;;;;;;1.27;0.70;;;3.40;93.70;;;;;;5013771;28;20100;-74
2020/12/24 06:45:28;;;;;;;1.80;0.70;;;3.50;93.80;;;;;;5014232;28;20038;-74
2020/12/24 06:48:15;;;;;;;1.00;0.60;;;3.50;93.80;;;;;;5013046;28;20040;-74
2020/12/24 06:50:42;;;;;;;1.57;0.90;;;3.50;93.90;;;;;;5014247;28;20034;-74
2020/12/24 06:53:27;;;;;;;1.60;0.87;;;3.50;93.80;;;;;;5014059;28;20100;-74
2020/12/24 06:56:21;;;;;;;1.43;0.87;;;3.60;93.80;;;;;;5012451;28;20057;-74
2020/12/24 06:59:03;;;;;;;2.17;0.90;;;3.60;93.80;;;;;;5013896;28;20042;-74
2020/12/24 07:01:31;;;;;;;2.20;0.80;;;3.60;93.80;;;;;;5014363;28;20057;-74
2020/12/24 07:04:01;;;;;;;3.23;1.30;;;3.70;93.80;;;;;;5013558;28;20037;-74
2020/12/24 07:06:43;;;;;;;1.92;0.90;;;3.70;93.80;;;;;;5013901;28;20487;-74
2020/12/24 07:09:10;;;;;;;2.47;0.90;;;3.70;93.80;;;;;;5012324;28;20132;-74
2020/12/24 07:11:47;;;;;;;4.50;1.03;;;3.70;93.80;;;;;;5013910;28;20392;-74
2020/12/24 07:14:32;;;;;;;3.30;0.90;;;3.70;93.80;;;;;;5013430;28;20037;-73
2020/12/24 07:17:06;;;;;;;2.13;1.10;;;3.80;93.90;;;;;;5013356;28;20068;-74
2020/12/24 07:19:33;;;;;;;2.43;1.10;;;3.80;93.90;;;;;;5014104;28;20045;-74
2020/12/24 07:22:04;;;;;;;2.20;1.10;;;3.80;93.80;;;;;;5011870;28;20042;-74
2020/12/24 07:24:30;;;;;;;2.08;1.10;;;3.90;93.90;;;;;;5013649;28;20034;-74
2020/12/24 07:26:58;;;;;;;3.67;1.57;;;3.90;93.90;;;;;;5013636;28;20095;-74
2020/12/24 07:29:25;;;;;;;4.77;1.57;;;3.90;93.80;;;;;;5011939;28;20145;-73
2020/12/24 07:31:53;;;;;;;5.17;2.20;;;3.90;93.80;;;;;;5013377;28;20503;-74
2020/12/24 07:34:37;;;;;;;6.63;3.03;;;3.90;93.90;;;;;;5011737;28;20046;-74
2020/12/24 07:37:04;;;;;;;6.30;2.70;;;4.00;93.90;;;;;;5013598;28;20041;-74
2020/12/24 07:39:31;;;;;;;5.70;2.47;;;4.00;93.90;;;;;;5013697;28;20077;-64
2020/12/24 07:41:57;;;;;;;7.83;3.30;;;4.00;93.90;;;;;;5013059;28;20057;-64
2020/12/24 07:44:23;;;;;;;7.20;2.87;;;4.10;93.90;;;;;;5012869;28;20029;-64
2020/12/24 07:46:51;;;;;;;7.40;3.20;;;4.10;93.90;;;;;;5013393;28;20094;-64
2020/12/24 07:49:18;;;;;;;5.53;2.33;;;4.10;93.90;;;;;;5013215;28;20050;-64
2020/12/24 07:51:56;;;;;;;6.53;2.90;;;4.10;94.00;;;;;;5012416;28;20062;-64
2020/12/24 07:54:28;;;;;;;7.87;3.13;;;4.20;94.00;;;;;;5012996;28;20418;-64
2020/12/24 07:56:55;;;;;;;5.93;2.43;;;4.20;94.10;;;;;;5012884;28;20493;-65
2020/12/24 07:59:22;;;;;;;6.73;2.60;;;4.30;94.00;;;;;;5044967;28;20068;-64
2020/12/24 08:01:48;;;;;;;8.43;3.70;;;4.30;94.00;;;;;;5012488;28;20424;-64
2020/12/24 08:04:14;;;;;;;8.97;4.00;;;4.30;94.10;;;;;;5012841;28;20054;-64
2020/12/24 08:06:39;;;;;;;7.83;3.60;;;4.40;94.10;;;;;;5012687;28;20038;-66
2020/12/24 08:09:13;;;;;;;9.50;4.40;;;4.40;94.00;;;;;;5012925;28;20069;-64
2020/12/24 08:11:40;;;;;;;8.70;4.50;;;4.40;94.10;;;;;;5012671;28;20060;-64
2020/12/24 08:14:06;;;;;;;10.90;5.37;;;4.50;94.10;;;;;;5012075;28;20057;-65
2020/12/24 08:16:39;;;;;;;12.07;5.43;;;4.50;94.30;;;;;;4994985;28;20034;-64
2020/12/24 08:19:14;;;;;;;14.17;5.93;;;4.60;94.10;;;;;;5012443;28;20129;-65
2020/12/24 08:22:00;;;;;;;12.07;5.83;;;4.60;94.10;;;;;;5012309;28;20061;-64
2020/12/24 08:24:26;;;;;;;10.27;5.20;;;4.70;94.20;;;;;;5012204;28;20038;-64
2020/12/24 08:26:53;;;;;;;11.20;5.40;;;4.60;94.00;;;;;;5012645;28;20046;-64
2020/12/24 08:29:19;;;;;;;11.90;5.57;;;4.70;94.00;;;;;;5010898;28;20120;-65
2020/12/24 08:31:46;;;;;;;10.00;5.03;;;4.70;94.00;;;;;;5012233;28;20107;-64
2020/12/24 08:34:12;;;;;;;11.20;5.67;;;4.70;94.00;;;;;;5011905;28;20041;-65
2020/12/24 08:36:48;;;;;;;12.00;6.10;;;4.70;94.00;;;;;;5012403;28;20462;-64
2020/12/24 08:39:18;;;;;;;12.17;5.77;;;4.70;94.20;;;;;;5012435;28;20483;-64
2020/12/24 08:41:53;;;;;;;12.52;6.07;;;4.80;94.10;;;;;;5011629;28;20048;-65
2020/12/24 08:44:20;;;;;;;13.63;6.10;;;4.80;94.10;;;;;;5012139;28;20042;-65
2020/12/24 08:46:59;;;;;;;11.97;6.30;;;4.80;94.10;;;;;;5011872;28;20038;-64
2020/12/24 08:49:26;;;;;;;13.00;6.10;;;4.80;94.10;;;;;;5012264;28;20042;-64
2020/12/24 08:52:11;;;;;;;10.93;5.10;;;4.90;94.10;;;;;;5011328;28;20030;-65
2020/12/24 08:54:37;;;;;;;10.73;4.13;;;4.90;94.10;;;;;;5010244;28;20562;-65
2020/12/24 08:57:09;;;;;;;9.13;4.10;;;5.00;94.40;;;;;;5011974;28;20042;-64
2020/12/24 08:59:35;;;;;;;9.17;4.20;;;5.00;94.20;;;;;;5010610;28;20403;-64
2020/12/24 09:02:01;;;;;;;9.60;4.10;;;5.10;94.20;;;;;;5009613;28;20084;-65
2020/12/24 09:04:27;;;;;;;9.20;4.37;;;5.10;94.20;;;;;;5009869;28;20121;-64
2020/12/24 09:06:52;;;;;;;8.10;3.60;;;5.20;94.20;;;;;;5009880;28;20465;-65
2020/12/24 09:09:19;;;;;;;9.97;4.50;;;5.20;94.10;;;;;;5010762;28;20089;-65
2020/12/24 09:11:45;;;;;;;9.50;4.50;;;5.20;94.10;;;;;;5010448;28;20497;-64
2020/12/24 09:14:16;;;;;;;9.33;4.30;;;5.30;94.20;;;;;;5010564;28;20088;-64
2020/12/24 09:16:56;;;;;;;8.00;3.80;;;5.30;94.20;;;;;;5011238;28;20044;-65
2020/12/24 09:19:22;;;;;;;10.40;3.97;;;5.40;94.20;;;;;;5011256;28;20053;-65
2020/12/24 09:21:57;;;;;;;7.80;3.73;;;5.40;94.20;;;;;;5010260;28;20531;-64
2020/12/24 09:24:26;;;;;;;7.93;3.67;;;5.50;94.20;;;;;;5010046;28;20068;-65
2020/12/24 09:26:56;;;;;;;8.40;3.80;;;5.50;94.20;;;;;;5008012;28;20090;-64
2020/12/24 09:29:25;;;;;;;10.47;4.10;;;5.50;94.10;;;;;;5008861;28;20096;-65
2020/12/24 09:31:59;;;;;;;8.63;4.20;;;5.60;94.10;;;;;;5010061;28;20121;-64
2020/12/24 09:34:28;;;;;;;9.97;4.17;;;5.60;94.00;;;;;;5009496;28;20506;-65
2020/12/24 09:36:55;;;;;;;10.70;4.23;;;5.60;94.00;;;;;;5007465;28;20045;-65
2020/12/24 09:39:21;;;;;;;10.97;5.20;;;5.60;94.20;;;;;;5011582;28;20080;-64
2020/12/24 09:41:48;;;;;;;11.07;6.03;;;5.60;93.90;;;;;;5010602;28;20034;-65
2020/12/24 09:44:14;;;;;;;12.50;7.00;;;5.60;93.90;;;;;;5010904;28;20038;-64
2020/12/24 09:46:41;;;;;;;13.83;6.70;;;5.60;93.90;;;;;;5009512;28;20038;-64
2020/12/24 09:49:07;;;;;;;13.73;6.53;;;5.70;94.00;;;;;;5011115;28;20041;-65
2020/12/24 09:51:36;;;;;;;12.33;5.53;;;5.70;94.00;;;;;;5009482;28;20045;-66
2020/12/24 09:54:05;;;;;;;10.47;5.07;;;5.70;94.10;;;;;;5010950;28;20037;-64
2020/12/24 09:56:31;;;;;;;10.87;5.50;;;5.80;94.00;;;;;;5010931;28;20038;-64
2020/12/24 09:58:58;;;;;;;11.37;5.80;;;5.80;94.00;;;;;;5009253;28;20042;-65
2020/12/24 10:01:24;;;;;;;12.60;6.57;;;5.80;94.10;;;;;;5011267;28;20034;-65
2020/12/24 10:03:50;;;;;;;10.80;5.77;;;5.90;94.00;;;;;;5009057;28;20503;-65
2020/12/24 10:06:16;;;;;;;10.53;4.93;;;5.90;94.00;;;;;;5010686;28;20045;-65
2020/12/24 10:08:42;;;;;;;10.63;5.00;;;5.90;94.00;;;;;;5010935;28;20044;-64
2020/12/24 10:11:12;;;;;;;10.40;5.33;;;6.00;93.90;;;;;;5009656;28;20067;-65
2020/12/24 10:13:37;;;;;;;12.17;5.77;;;6.00;93.60;;;;;;5046077;28;20092;-64
2020/12/24 10:16:03;;;;;;;10.27;5.70;;;5.90;93.60;;;;;;5014340;28;20273;-65
2020/12/24 10:18:29;;;;;;;11.00;5.87;;;6.00;93.80;;;;;;5014977;28;20034;-65
2020/12/24 10:20:55;;;;;;;10.57;5.63;;;6.00;93.80;;;;;;5046755;28;20457;-64
2020/12/24 10:23:21;;;;;;;12.63;6.37;;;6.00;94.00;;;;;;5014190;28;20092;-65
2020/12/24 10:25:46;;;;;;;11.57;5.23;;;6.00;93.60;;;;;;5014792;28;20034;-65
2020/12/24 10:28:12;;;;;;;12.10;6.00;;;5.90;93.50;;;;;;5014194;28;20053;-65
2020/12/24 10:30:38;;;;;;;11.67;5.73;;;5.90;93.70;;;;;;5013591;28;20034;-64
2020/12/24 10:33:03;;;;;;;11.37;5.70;;;5.90;93.60;;;;;;5014465;28;20038;-65
2020/12/24 10:35:30;;;;;;;12.73;5.70;;;5.90;93.60;;;;;;5014040;28;20044;-65
2020/12/24 10:37:56;;;;;;;11.10;5.60;;;5.90;93.50;;;;;;5014672;28;20037;-65
2020/12/24 10:40:22;;;;;;;14.70;5.77;;;5.90;93.70;;;;;;5012976;28;20087;-65
2020/12/24 10:42:48;;;;;;;12.80;6.13;;;5.90;93.80;;;;;;5013841;28;20038;-65
2020/12/24 10:45:14;;;;;;;13.73;6.30;;;6.00;93.70;;;;;;5012513;28;20038;-64
2020/12/24 10:47:40;;;;;;;11.40;6.07;;;6.00;93.80;;;;;;5013408;28;20034;-65
2020/12/24 10:50:06;;;;;;;14.57;6.63;;;6.10;93.90;;;;;;5014927;28;20104;-64
2020/12/24 10:52:32;;;;;;;14.30;7.17;;;6.20;93.90;;;;;;5029197;28;20041;-65
2020/12/24 10:54:58;;;;;;;14.30;7.67;;;6.20;93.80;;;;;;5013941;28;20073;-65
2020/12/24 10:57:24;;;;;;;16.50;8.50;;;6.30;93.70;;;;;;5024046;28;20068;-65
2020/12/24 10:59:49;;;;;;;16.73;8.40;;;6.30;93.50;;;;;;5033599;28;20046;-66
2020/12/24 11:02:15;;;;;;;19.57;9.80;;;6.20;93.30;;;;;;5033866;28;20063;-65
2020/12/24 11:04:41;;;;;;;18.80;9.67;;;6.20;93.30;;;;;;5033066;28;20049;-67
2020/12/24 11:07:06;;;;;;;18.90;9.40;;;6.20;93.50;;;;;;5018626;28;20092;-66
2020/12/24 11:09:32;;;;;;;21.10;10.47;;;6.20;93.70;;;;;;5045832;28;20129;-67
2020/12/24 11:11:58;;;;;;;20.67;10.40;;;6.30;93.80;;;;;;5012092;28;20125;-66
2020/12/24 11:14:24;;;;;;;22.33;10.67;;;6.30;93.70;;;;;;5013491;28;20053;-66
2020/12/24 11:16:50;;;;;;;22.80;10.03;;;6.40;93.50;;;;;;5013401;28;20057;-66
2020/12/24 11:19:16;;;;;;;24.53;12.47;;;6.40;93.50;;;;;;5012560;28;20045;-65
2020/12/24 11:21:41;;;;;;;25.43;11.57;;;6.50;93.70;;;;;;5013772;28;20033;-65
2020/12/24 11:24:07;;;;;;;23.73;12.03;;;6.50;93.70;;;;;;5012990;28;20044;-65
2020/12/24 11:26:34;;;;;;;23.47;11.37;;;6.60;93.60;;;;;;5013619;28;20411;-65
2020/12/24 11:29:00;;;;;;;22.80;11.23;;;6.70;93.60;;;;;;4995714;28;20053;-65
2020/12/24 11:31:27;;;;;;;24.20;10.97;;;6.70;93.50;;;;;;5013835;28;20037;-65
2020/12/24 11:33:54;;;;;;;24.90;11.47;;;6.70;93.50;;;;;;5013571;28;20113;-65
2020/12/24 11:36:21;;;;;;;20.40;10.47;;;6.80;93.60;;;;;;5011576;28;20052;-64
2020/12/24 11:38:47;;;;;;;23.10;11.53;;;6.90;93.40;;;;;;5013609;28;20030;-65
2020/12/24 11:41:24;;;;;;;19.90;10.20;;;7.00;93.50;;;;;;5011882;28;20046;-65
2020/12/24 11:43:51;;;;;;;22.77;10.63;;;7.00;93.30;;;;;;5012017;28;20502;-65
2020/12/24 11:46:18;;;;;;;21.67;11.20;;;7.00;93.30;;;;;;5011472;28;20048;-65
2020/12/24 11:48:46;;;;;;;25.70;12.63;;;7.10;93.10;;;;;;5013237;28;20042;-65
2020/12/24 11:51:13;;;;;;;24.10;11.93;;;7.00;93.00;;;;;;5013317;28;20045;-65
2020/12/24 11:53:40;;;;;;;20.70;11.70;;;7.00;93.00;;;;;;5012613;28;20060;-65
2020/12/24 11:56:06;;;;;;;22.63;11.20;;;7.00;93.20;;;;;;5012961;28;20057;-65
2020/12/24 11:58:32;;;;;;;20.60;11.13;;;7.00;93.10;;;;;;5012760;28;20056;-65
2020/12/24 12:00:58;;;;;;;24.80;11.53;;;7.00;93.10;;;;;;5010940;28;20479;-65
2020/12/24 12:03:24;;;;;;;21.37;10.83;;;7.00;93.00;;;;;;5010366;28;20395;-65
2020/12/24 12:05:50;;;;;;;23.93;11.83;;;7.00;93.00;;;;;;5015454;28;20174;-65
2020/12/24 12:08:17;;;;;;;23.27;10.90;;;7.00;92.90;;;;;;5011427;28;20038;-65
2020/12/24 12:10:43;;;;;;;25.37;12.83;;;7.00;92.80;;;;;;5010946;28;20529;-65
2020/12/24 12:13:09;;;;;;;23.10;10.80;;;7.00;92.90;;;;;;5012127;28;20391;-64
2020/12/24 12:15:35;;;;;;;27.27;11.67;;;7.00;93.00;;;;;;5011464;28;20085;-65
2020/12/24 12:18:00;;;;;;;22.40;11.97;;;7.10;93.10;;;;;;5027793;28;20083;-65
2020/12/24 12:20:27;;;;;;;25.97;12.03;;;7.10;93.00;;;;;;5016143;28;20065;-65
2020/12/24 12:22:53;;;;;;;21.23;11.80;;;7.10;93.00;;;;;;5023972;28;20045;-65
2020/12/24 12:25:19;;;;;;;21.87;10.80;;;7.10;92.80;;;;;;5021911;28;20038;-65
2020/12/24 12:27:47;;;;;;;20.53;10.67;;;7.20;93.00;;;;;;5015428;28;20120;-64
2020/12/24 12:30:13;;;;;;;19.67;9.70;;;7.20;92.90;;;;;;5013803;28;20450;-65
2020/12/24 12:32:39;;;;;;;19.57;9.80;;;7.20;92.70;;;;;;5025522;28;20040;-64
2020/12/24 12:35:05;;;;;;;18.47;9.10;;;7.30;92.50;;;;;;5012351;28;20491;-65
2020/12/24 12:37:37;;;;;;;16.97;8.90;;;7.30;92.50;;;;;;5024343;28;20086;-64
2020/12/24 12:40:07;;;;;;;17.83;8.57;;;7.30;92.70;;;;;;5015049;28;20093;-65
2020/12/24 12:42:32;;;;;;;20.65;9.10;;;7.40;92.70;;;;;;5026726;28;20061;-65
2020/12/24 12:44:59;;;;;;;15.87;8.87;;;7.40;92.50;;;;;;5019056;28;20432;-65
2020/12/24 12:47:25;;;;;;;15.70;8.20;;;7.50;92.50;;;;;;5019315;28;20038;-65
2020/12/24 12:49:52;;;;;;;17.30;8.40;;;7.50;92.50;;;;;;5027605;28;20072;-65
2020/12/24 12:52:18;;;;;;;17.07;7.67;;;7.50;92.10;;;;;;5014623;28;20041;-65
2020/12/24 12:54:44;;;;;;;14.70;7.13;;;7.50;92.20;;;;;;5025008;28;20513;-65
2020/12/24 12:57:10;;;;;;;14.23;7.20;;;7.50;92.00;;;;;;5021916;28;20128;-65